Kouyou — JD3890 — position and weather

sailwx.info

Track history (hours):
 
Tides and Currents Weather Stations Pressure Air Temp Water Temp Dewpoint Dewpoint Depression Visibility Wind Speed Wind Dir Waves Ship Positions

Kouyou

Last reported at 2017-Oct-19 15:28 UTC. Time now 2017-Oct-20 12:48 UTC.
Position N 34°36' E 134°56'.

Length 83 m; draft 4.6 m.

Type: Ship. MMSI: 431006632.

Date/timePositionNaut miles runAvg speedWind from/ knotsBaromVisibWave heightAir tempDewpointWater temp
2017-Oct-19 15:28N 34°36' E 134°56'5 9.7
2017-Oct-19 15:00N 34°37' E 135°02'611.2
2017-Oct-19 14:30N 34°36' E 135°08'713.4
2017-Oct-19 14:00N 34°36' E 135°17'612.5
2017-Oct-19 13:30N 34°36' E 135°24'3 0.2
2017-Oct-18 22:18N 34°35' E 135°27'1 2.4
2017-Oct-18 21:59N 34°35' E 135°26'3 7.2
2017-Oct-18 21:30N 34°36' E 135°22'4 8.5
2017-Oct-18 21:00N 34°34' E 135°18'510.9
2017-Oct-18 20:30N 34°30' E 135°14'510.5
2017-Oct-18 20:00N 34°26' E 135°10'610.3
2017-Oct-18 19:25N 34°22' E 135°04'7 9.9
2017-Oct-18 18:43N 34°16' E 134°59'211.3
2017-Oct-18 18:30N 34°15' E 135°02'4 8.6
2017-Oct-18 18:01N 34°15' E 135°07'0 0.2
2017-Oct-18 17:29N 34°15' E 135°07'0 0.0
2017-Oct-18 17:00N 34°15' E 135°07'0 0.0
2017-Oct-18 16:29N 34°15' E 135°07'0 0.0
2017-Oct-18 15:59N 34°15' E 135°07'0 0.0
2017-Oct-18 15:29N 34°15' E 135°07'0 0.0
2017-Oct-18 14:59N 34°15' E 135°07'0 0.0
2017-Oct-18 13:59N 34°15' E 135°07'0 0.0
2017-Oct-18 13:29N 34°15' E 135°07'0 0.0
2017-Oct-18 12:59N 34°15' E 135°07'0 0.0
2017-Oct-18 12:30N 34°15' E 135°07'0 0.0
2017-Oct-18 11:59N 34°15' E 135°07'0 0.0
2017-Oct-18 11:29N 34°15' E 135°07'0 0.0
2017-Oct-18 10:59N 34°15' E 135°07'0 0.0
2017-Oct-18 10:29N 34°15' E 135°07'0 0.0
2017-Oct-18 09:59N 34°15' E 135°07'0 0.0
2017-Oct-18 09:29N 34°15' E 135°07'0 0.0
2017-Oct-18 08:59N 34°15' E 135°07'0 0.0
2017-Oct-18 08:29N 34°15' E 135°07'0 0.0
2017-Oct-18 07:59N 34°15' E 135°07'0 0.0
2017-Oct-18 07:29N 34°15' E 135°07'0 0.0
2017-Oct-18 06:59N 34°15' E 135°07'0 0.0
2017-Oct-18 06:29N 34°15' E 135°07'0 0.0
2017-Oct-18 05:59N 34°15' E 135°07'0 0.0
2017-Oct-18 05:30N 34°15' E 135°07'2 3.4
2017-Oct-18 05:00N 34°15' E 135°05'0 0.4
2017-Oct-18 04:29N 34°15' E 135°05'0 0.0
2017-Oct-18 03:59N 34°15' E 135°05'0 0.1
2017-Oct-18 03:29N 34°15' E 135°05'0 0.0
2017-Oct-18 02:59N 34°15' E 135°05'0 0.0
2017-Oct-18 02:29N 34°15' E 135°05'0 0.0
2017-Oct-18 01:56N 34°15' E 135°05'0 0.0
2017-Oct-18 01:29N 34°15' E 135°05'0 0.0
2017-Oct-18 00:59N 34°15' E 135°05'0 0.0
2017-Oct-18 00:29N 34°15' E 135°05'0 0.0
2017-Oct-17 23:59N 34°15' E 135°05'0 0.0
2017-Oct-17 23:29N 34°15' E 135°05'0 0.0
2017-Oct-17 22:59N 34°15' E 135°05'0 0.0
2017-Oct-17 22:29N 34°15' E 135°05'0 0.1
2017-Oct-17 21:56N 34°15' E 135°05'0 0.1
2017-Oct-17 21:29N 34°15' E 135°05'0 0.0
2017-Oct-17 20:56N 34°15' E 135°05'0 0.0
2017-Oct-17 20:29N 34°15' E 135°05'0 0.0
2017-Oct-17 19:59N 34°15' E 135°05'0 0.0
2017-Oct-17 19:26N 34°15' E 135°05'0 0.0
2017-Oct-17 18:59N 34°15' E 135°05'0 0.0
2017-Oct-17 18:29N 34°15' E 135°05'0 0.0
2017-Oct-17 17:59N 34°15' E 135°05'0 0.0
2017-Oct-17 17:26N 34°15' E 135°05'1 2.8
2017-Oct-17 17:00N 34°15' E 135°04'812.5
2017-Oct-17 16:23N 34°23' E 135°04'513.6
2017-Oct-17 16:00N 34°28' E 135°04'713.8
2017-Oct-17 15:30N 34°35' E 135°03'713.2
2017-Oct-17 15:00N 34°37' E 134°55'10 0.4
2017-Oct-16 16:26N 34°41' E 134°44'510.7
2017-Oct-16 15:56N 34°39' E 134°50'4 9.2
2017-Oct-16 15:29N 34°37' E 134°55'5 9.9
2017-Oct-16 14:59N 34°38' E 135°01'4 8.4
2017-Oct-16 14:30N 34°35' E 135°05'1110.7
2017-Oct-16 13:26N 34°24' E 135°02'610.4
2017-Oct-16 12:50N 34°18' E 134°60'310.5
2017-Oct-16 12:30N 34°15' E 134°59'611.3
2017-Oct-16 12:00N 34°09' E 135°00'227 5.5
2017-Oct-14 18:48N 34°59' E 139°30'612.1
2017-Oct-14 18:20N 35°02' E 139°35'412.0
2017-Oct-14 18:00N 35°05' E 139°39'612.7
2017-Oct-14 17:30N 35°09' E 139°44'612.9
2017-Oct-14 17:00N 35°16' E 139°46'713.1
2017-Oct-14 16:30N 35°21' E 139°42'510.8
2017-Oct-14 16:00N 35°25' E 139°47'610.9
2017-Oct-14 15:29N 35°22' E 139°53'0 0.1
2017-Oct-14 14:21N 35°22' E 139°52'0 0.0
2017-Oct-14 13:57N 35°22' E 139°52'0 0.0
2017-Oct-14 13:30N 35°22' E 139°52'0 0.0
2017-Oct-14 12:57N 35°22' E 139°52'0 0.0
2017-Oct-14 12:27N 35°22' E 139°52'0 0.0
2017-Oct-14 12:00N 35°22' E 139°52'0 0.0
2017-Oct-14 11:30N 35°22' E 139°52'0 0.0
2017-Oct-14 10:57N 35°22' E 139°52'0 0.0
2017-Oct-14 09:39N 35°22' E 139°52'0 0.5
2017-Oct-14 09:30N 35°22' E 139°52'2 2.1
2017-Oct-14 08:47N 35°23' E 139°51'1 3.8
2017-Oct-14 08:29N 35°24' E 139°50'0 0.1
2017-Oct-14 07:57N 35°24' E 139°50'0 0.1
2017-Oct-14 07:24N 35°24' E 139°50'0 0.0
2017-Oct-14 07:00N 35°24' E 139°50'0 0.0
2017-Oct-14 06:30N 35°24' E 139°50'0 0.0
2017-Oct-14 06:00N 35°24' E 139°50'0 0.0
2017-Oct-14 05:27N 35°24' E 139°50'0 0.0
2017-Oct-14 05:00N 35°24' E 139°50'0 0.0
2017-Oct-14 04:30N 35°24' E 139°50'0 0.0
2017-Oct-14 04:00N 35°24' E 139°50'0 0.0
2017-Oct-14 03:30N 35°24' E 139°50'0 0.0
2017-Oct-14 02:54N 35°24' E 139°50'0 0.0
2017-Oct-14 02:30N 35°24' E 139°50'0 0.0
2017-Oct-14 01:57N 35°24' E 139°50'0 0.0
2017-Oct-14 00:33N 35°24' E 139°50'0 0.2
2017-Oct-14 00:28N 35°24' E 139°50'510.8
2017-Oct-14 00:00N 35°26' E 139°44'510.0
2017-Oct-13 23:30N 35°28' E 139°39'0 0.7
2017-Oct-13 23:00N 35°29' E 139°39'0 0.0
2017-Oct-13 22:30N 35°29' E 139°39'0 0.0
2017-Oct-13 22:00N 35°29' E 139°39'0 0.1
2017-Oct-13 21:30N 35°29' E 139°39'0 0.1
2017-Oct-13 21:00N 35°29' E 139°39'0 0.0
2017-Oct-13 20:30N 35°29' E 139°39'0 0.0
2017-Oct-13 20:00N 35°29' E 139°39'0 0.1
2017-Oct-13 19:30N 35°29' E 139°39'0 0.1
2017-Oct-13 19:00N 35°29' E 139°39'0 0.1
2017-Oct-13 18:30N 35°29' E 139°39'0 0.1
2017-Oct-13 18:00N 35°29' E 139°39'0 0.1
2017-Oct-13 17:30N 35°29' E 139°39'0 0.1
2017-Oct-13 17:00N 35°29' E 139°39'0 0.0
2017-Oct-13 16:27N 35°29' E 139°39'0 0.0
2017-Oct-13 16:00N 35°29' E 139°39'0 0.0
2017-Oct-13 15:30N 35°29' E 139°39'0 0.0
2017-Oct-13 15:00N 35°29' E 139°39'0 0.0
2017-Oct-13 14:30N 35°29' E 139°39'0 0.0
2017-Oct-13 14:00N 35°29' E 139°39'0 0.0
2017-Oct-13 13:30N 35°29' E 139°39'0 0.0
2017-Oct-13 13:00N 35°29' E 139°39'0 0.0
2017-Oct-13 12:30N 35°29' E 139°39'0 0.1
2017-Oct-13 12:00N 35°29' E 139°39'0 0.0
2017-Oct-13 11:30N 35°29' E 139°39'0 0.1
2017-Oct-13 11:00N 35°29' E 139°39'0 0.1
2017-Oct-13 10:30N 35°29' E 139°39'0 0.0
2017-Oct-13 10:00N 35°29' E 139°39'0 0.1
2017-Oct-13 09:30N 35°29' E 139°39'0 0.1
2017-Oct-13 09:00N 35°29' E 139°39'0 0.0
2017-Oct-13 08:30N 35°29' E 139°39'0 0.1
2017-Oct-13 08:00N 35°29' E 139°39'0 0.1
2017-Oct-13 07:30N 35°29' E 139°39'0 0.1
2017-Oct-13 07:00N 35°29' E 139°39'0 0.1
2017-Oct-13 06:30N 35°29' E 139°39'0 0.1
2017-Oct-13 06:00N 35°29' E 139°39'0 0.0
2017-Oct-13 05:30N 35°29' E 139°39'0 0.0
2017-Oct-13 05:00N 35°29' E 139°39'0 0.0
2017-Oct-13 04:30N 35°29' E 139°39'0 0.1
2017-Oct-13 04:00N 35°29' E 139°39'0 0.1
2017-Oct-13 03:30N 35°29' E 139°39'0 0.1
2017-Oct-13 03:00N 35°29' E 139°39'0 0.1
2017-Oct-13 02:30N 35°29' E 139°39'0 0.0
2017-Oct-13 02:00N 35°29' E 139°39'0 0.0
2017-Oct-13 01:30N 35°29' E 139°39'0 0.0
2017-Oct-13 01:00N 35°29' E 139°39'0 0.0
2017-Oct-13 00:30N 35°29' E 139°39'0 0.0
2017-Oct-13 00:00N 35°29' E 139°39'0 0.0
2017-Oct-12 23:30N 35°29' E 139°39'3 5.7
2017-Oct-12 23:00N 35°27' E 139°42'4 7.4
2017-Oct-12 22:30N 35°24' E 139°44'0 0.1
2017-Oct-12 22:00N 35°24' E 139°44'0 0.0
2017-Oct-12 21:30N 35°24' E 139°44'0 0.0
2017-Oct-12 21:00N 35°24' E 139°44'0 0.1
2017-Oct-12 20:30N 35°24' E 139°44'0 0.1
2017-Oct-12 20:00N 35°24' E 139°44'0 0.1
2017-Oct-12 19:30N 35°24' E 139°44'0 0.0
2017-Oct-12 19:00N 35°24' E 139°44'0 0.0
2017-Oct-12 18:30N 35°24' E 139°44'0 0.0
2017-Oct-12 18:00N 35°24' E 139°44'0 0.0
2017-Oct-12 17:30N 35°24' E 139°44'0 0.0
2017-Oct-12 17:00N 35°24' E 139°44'0 0.0
2017-Oct-12 16:30N 35°24' E 139°44'0 0.0
2017-Oct-12 16:00N 35°24' E 139°44'0 0.1
2017-Oct-12 15:30N 35°24' E 139°44'0 0.1
2017-Oct-12 15:00N 35°24' E 139°44'0 0.1
2017-Oct-12 14:30N 35°24' E 139°44'0 0.0
2017-Oct-12 14:00N 35°24' E 139°44'0 0.0
2017-Oct-12 13:30N 35°24' E 139°44'0 0.1
2017-Oct-12 13:00N 35°24' E 139°44'0 0.1
2017-Oct-12 12:30N 35°24' E 139°44'0 0.0
2017-Oct-12 11:54N 35°24' E 139°44'0 0.0
2017-Oct-12 11:30N 35°24' E 139°44'0 0.0
2017-Oct-12 11:00N 35°24' E 139°44'0 0.0
2017-Oct-12 10:30N 35°24' E 139°44'0 0.0
2017-Oct-12 09:57N 35°24' E 139°44'0 0.0
2017-Oct-12 09:30N 35°24' E 139°44'0 0.0
2017-Oct-12 09:00N 35°24' E 139°44'0 0.0
2017-Oct-12 08:30N 35°24' E 139°44'0 0.0
2017-Oct-12 08:00N 35°24' E 139°44'0 0.0
2017-Oct-12 07:30N 35°24' E 139°44'0 0.1
2017-Oct-12 07:00N 35°24' E 139°44'4 7.6
2017-Oct-12 06:31N 35°20' E 139°43'611.9
2017-Oct-12 06:00N 35°15' E 139°47'611.7
2017-Oct-12 05:31N 35°09' E 139°46'510.8
2017-Oct-12 05:01N 35°04' E 139°44'611.6
2017-Oct-12 04:30N 35°00' E 139°39'  
Track history (hours):
 
Tides and Currents Weather Stations Pressure Air Temp Water Temp Dewpoint Dewpoint Depression Visibility Wind Speed Wind Dir Waves Ship Positions

Kouyou

Last reported at 2017-Oct-19 15:28 UTC. Time now 2017-Oct-20 12:48 UTC.
Position N 34°36' E 134°56'.

Length 83 m; draft 4.6 m.

Type: Ship. MMSI: 431006632.

Date/timePositionNaut miles runAvg speedWind from/ knotsBaromVisibWave heightAir tempDewpointWater temp
2017-Oct-19 15:28N 34°36' E 134°56'5 9.7
2017-Oct-19 15:00N 34°37' E 135°02'611.2
2017-Oct-19 14:30N 34°36' E 135°08'713.4
2017-Oct-19 14:00N 34°36' E 135°17'612.5
2017-Oct-19 13:30N 34°36' E 135°24'3 0.2
2017-Oct-18 22:18N 34°35' E 135°27'1 2.4
2017-Oct-18 21:59N 34°35' E 135°26'3 7.2
2017-Oct-18 21:30N 34°36' E 135°22'4 8.5
2017-Oct-18 21:00N 34°34' E 135°18'510.9
2017-Oct-18 20:30N 34°30' E 135°14'510.5
2017-Oct-18 20:00N 34°26' E 135°10'610.3
2017-Oct-18 19:25N 34°22' E 135°04'7 9.9
2017-Oct-18 18:43N 34°16' E 134°59'211.3
2017-Oct-18 18:30N 34°15' E 135°02'4 8.6
2017-Oct-18 18:01N 34°15' E 135°07'0 0.2
2017-Oct-18 17:29N 34°15' E 135°07'0 0.0
2017-Oct-18 17:00N 34°15' E 135°07'0 0.0
2017-Oct-18 16:29N 34°15' E 135°07'0 0.0
2017-Oct-18 15:59N 34°15' E 135°07'0 0.0
2017-Oct-18 15:29N 34°15' E 135°07'0 0.0
2017-Oct-18 14:59N 34°15' E 135°07'0 0.0
2017-Oct-18 13:59N 34°15' E 135°07'0 0.0
2017-Oct-18 13:29N 34°15' E 135°07'0 0.0
2017-Oct-18 12:59N 34°15' E 135°07'0 0.0
2017-Oct-18 12:30N 34°15' E 135°07'0 0.0
2017-Oct-18 11:59N 34°15' E 135°07'0 0.0
2017-Oct-18 11:29N 34°15' E 135°07'0 0.0
2017-Oct-18 10:59N 34°15' E 135°07'0 0.0
2017-Oct-18 10:29N 34°15' E 135°07'0 0.0
2017-Oct-18 09:59N 34°15' E 135°07'0 0.0
2017-Oct-18 09:29N 34°15' E 135°07'0 0.0
2017-Oct-18 08:59N 34°15' E 135°07'0 0.0
2017-Oct-18 08:29N 34°15' E 135°07'0 0.0
2017-Oct-18 07:59N 34°15' E 135°07'0 0.0
2017-Oct-18 07:29N 34°15' E 135°07'0 0.0
2017-Oct-18 06:59N 34°15' E 135°07'0 0.0
2017-Oct-18 06:29N 34°15' E 135°07'0 0.0
2017-Oct-18 05:59N 34°15' E 135°07'0 0.0
2017-Oct-18 05:30N 34°15' E 135°07'2 3.4
2017-Oct-18 05:00N 34°15' E 135°05'0 0.4
2017-Oct-18 04:29N 34°15' E 135°05'0 0.0
2017-Oct-18 03:59N 34°15' E 135°05'0 0.1
2017-Oct-18 03:29N 34°15' E 135°05'0 0.0
2017-Oct-18 02:59N 34°15' E 135°05'0 0.0
2017-Oct-18 02:29N 34°15' E 135°05'0 0.0
2017-Oct-18 01:56N 34°15' E 135°05'0 0.0
2017-Oct-18 01:29N 34°15' E 135°05'0 0.0
2017-Oct-18 00:59N 34°15' E 135°05'0 0.0
2017-Oct-18 00:29N 34°15' E 135°05'0 0.0
2017-Oct-17 23:59N 34°15' E 135°05'0 0.0
2017-Oct-17 23:29N 34°15' E 135°05'0 0.0
2017-Oct-17 22:59N 34°15' E 135°05'0 0.0
2017-Oct-17 22:29N 34°15' E 135°05'0 0.1
2017-Oct-17 21:56N 34°15' E 135°05'0 0.1
2017-Oct-17 21:29N 34°15' E 135°05'0 0.0
2017-Oct-17 20:56N 34°15' E 135°05'0 0.0
2017-Oct-17 20:29N 34°15' E 135°05'0 0.0
2017-Oct-17 19:59N 34°15' E 135°05'0 0.0
2017-Oct-17 19:26N 34°15' E 135°05'0 0.0
2017-Oct-17 18:59N 34°15' E 135°05'0 0.0
2017-Oct-17 18:29N 34°15' E 135°05'0 0.0
2017-Oct-17 17:59N 34°15' E 135°05'0 0.0
2017-Oct-17 17:26N 34°15' E 135°05'1 2.8
2017-Oct-17 17:00N 34°15' E 135°04'812.5
2017-Oct-17 16:23N 34°23' E 135°04'513.6
2017-Oct-17 16:00N 34°28' E 135°04'713.8
2017-Oct-17 15:30N 34°35' E 135°03'713.2
2017-Oct-17 15:00N 34°37' E 134°55'10 0.4
2017-Oct-16 16:26N 34°41' E 134°44'510.7
2017-Oct-16 15:56N 34°39' E 134°50'4 9.2
2017-Oct-16 15:29N 34°37' E 134°55'5 9.9
2017-Oct-16 14:59N 34°38' E 135°01'4 8.4
2017-Oct-16 14:30N 34°35' E 135°05'1110.7
2017-Oct-16 13:26N 34°24' E 135°02'610.4
2017-Oct-16 12:50N 34°18' E 134°60'310.5
2017-Oct-16 12:30N 34°15' E 134°59'611.3
2017-Oct-16 12:00N 34°09' E 135°00'227 5.5
2017-Oct-14 18:48N 34°59' E 139°30'612.1
2017-Oct-14 18:20N 35°02' E 139°35'412.0
2017-Oct-14 18:00N 35°05' E 139°39'612.7
2017-Oct-14 17:30N 35°09' E 139°44'612.9
2017-Oct-14 17:00N 35°16' E 139°46'713.1
2017-Oct-14 16:30N 35°21' E 139°42'510.8
2017-Oct-14 16:00N 35°25' E 139°47'610.9
2017-Oct-14 15:29N 35°22' E 139°53'0 0.1
2017-Oct-14 14:21N 35°22' E 139°52'0 0.0
2017-Oct-14 13:57N 35°22' E 139°52'0 0.0
2017-Oct-14 13:30N 35°22' E 139°52'0 0.0
2017-Oct-14 12:57N 35°22' E 139°52'0 0.0
2017-Oct-14 12:27N 35°22' E 139°52'0 0.0
2017-Oct-14 12:00N 35°22' E 139°52'0 0.0
2017-Oct-14 11:30N 35°22' E 139°52'0 0.0
2017-Oct-14 10:57N 35°22' E 139°52'0 0.0
2017-Oct-14 09:39N 35°22' E 139°52'0 0.5
2017-Oct-14 09:30N 35°22' E 139°52'2 2.1
2017-Oct-14 08:47N 35°23' E 139°51'1 3.8
2017-Oct-14 08:29N 35°24' E 139°50'0 0.1
2017-Oct-14 07:57N 35°24' E 139°50'0 0.1
2017-Oct-14 07:24N 35°24' E 139°50'0 0.0
2017-Oct-14 07:00N 35°24' E 139°50'0 0.0
2017-Oct-14 06:30N 35°24' E 139°50'0 0.0
2017-Oct-14 06:00N 35°24' E 139°50'0 0.0
2017-Oct-14 05:27N 35°24' E 139°50'0 0.0
2017-Oct-14 05:00N 35°24' E 139°50'0 0.0
2017-Oct-14 04:30N 35°24' E 139°50'0 0.0
2017-Oct-14 04:00N 35°24' E 139°50'0 0.0
2017-Oct-14 03:30N 35°24' E 139°50'0 0.0
2017-Oct-14 02:54N 35°24' E 139°50'0 0.0
2017-Oct-14 02:30N 35°24' E 139°50'0 0.0
2017-Oct-14 01:57N 35°24' E 139°50'0 0.0
2017-Oct-14 00:33N 35°24' E 139°50'0 0.2
2017-Oct-14 00:28N 35°24' E 139°50'510.8
2017-Oct-14 00:00N 35°26' E 139°44'510.0
2017-Oct-13 23:30N 35°28' E 139°39'0 0.7
2017-Oct-13 23:00N 35°29' E 139°39'0 0.0
2017-Oct-13 22:30N 35°29' E 139°39'0 0.0
2017-Oct-13 22:00N 35°29' E 139°39'0 0.1
2017-Oct-13 21:30N 35°29' E 139°39'0 0.1
2017-Oct-13 21:00N 35°29' E 139°39'0 0.0
2017-Oct-13 20:30N 35°29' E 139°39'0 0.0
2017-Oct-13 20:00N 35°29' E 139°39'0 0.1
2017-Oct-13 19:30N 35°29' E 139°39'0 0.1
2017-Oct-13 19:00N 35°29' E 139°39'0 0.1
2017-Oct-13 18:30N 35°29' E 139°39'0 0.1
2017-Oct-13 18:00N 35°29' E 139°39'0 0.1
2017-Oct-13 17:30N 35°29' E 139°39'0 0.1
2017-Oct-13 17:00N 35°29' E 139°39'0 0.0
2017-Oct-13 16:27N 35°29' E 139°39'0 0.0
2017-Oct-13 16:00N 35°29' E 139°39'0 0.0
2017-Oct-13 15:30N 35°29' E 139°39'0 0.0
2017-Oct-13 15:00N 35°29' E 139°39'0 0.0
2017-Oct-13 14:30N 35°29' E 139°39'0 0.0
2017-Oct-13 14:00N 35°29' E 139°39'0 0.0
2017-Oct-13 13:30N 35°29' E 139°39'0 0.0
2017-Oct-13 13:00N 35°29' E 139°39'0 0.0
2017-Oct-13 12:30N 35°29' E 139°39'0 0.1
2017-Oct-13 12:00N 35°29' E 139°39'0 0.0
2017-Oct-13 11:30N 35°29' E 139°39'0 0.1
2017-Oct-13 11:00N 35°29' E 139°39'0 0.1
2017-Oct-13 10:30N 35°29' E 139°39'0 0.0
2017-Oct-13 10:00N 35°29' E 139°39'0 0.1
2017-Oct-13 09:30N 35°29' E 139°39'0 0.1
2017-Oct-13 09:00N 35°29' E 139°39'0 0.0
2017-Oct-13 08:30N 35°29' E 139°39'0 0.1
2017-Oct-13 08:00N 35°29' E 139°39'0 0.1
2017-Oct-13 07:30N 35°29' E 139°39'0 0.1
2017-Oct-13 07:00N 35°29' E 139°39'0 0.1
2017-Oct-13 06:30N 35°29' E 139°39'0 0.1
2017-Oct-13 06:00N 35°29' E 139°39'0 0.0
2017-Oct-13 05:30N 35°29' E 139°39'0 0.0
2017-Oct-13 05:00N 35°29' E 139°39'0 0.0
2017-Oct-13 04:30N 35°29' E 139°39'0 0.1
2017-Oct-13 04:00N 35°29' E 139°39'0 0.1
2017-Oct-13 03:30N 35°29' E 139°39'0 0.1
2017-Oct-13 03:00N 35°29' E 139°39'0 0.1
2017-Oct-13 02:30N 35°29' E 139°39'0 0.0
2017-Oct-13 02:00N 35°29' E 139°39'0 0.0
2017-Oct-13 01:30N 35°29' E 139°39'0 0.0
2017-Oct-13 01:00N 35°29' E 139°39'0 0.0
2017-Oct-13 00:30N 35°29' E 139°39'0 0.0
2017-Oct-13 00:00N 35°29' E 139°39'0 0.0
2017-Oct-12 23:30N 35°29' E 139°39'3 5.7
2017-Oct-12 23:00N 35°27' E 139°42'4 7.4
2017-Oct-12 22:30N 35°24' E 139°44'0 0.1
2017-Oct-12 22:00N 35°24' E 139°44'0 0.0
2017-Oct-12 21:30N 35°24' E 139°44'0 0.0
2017-Oct-12 21:00N 35°24' E 139°44'0 0.1
2017-Oct-12 20:30N 35°24' E 139°44'0 0.1
2017-Oct-12 20:00N 35°24' E 139°44'0 0.1
2017-Oct-12 19:30N 35°24' E 139°44'0 0.0
2017-Oct-12 19:00N 35°24' E 139°44'0 0.0
2017-Oct-12 18:30N 35°24' E 139°44'0 0.0
2017-Oct-12 18:00N 35°24' E 139°44'0 0.0
2017-Oct-12 17:30N 35°24' E 139°44'0 0.0
2017-Oct-12 17:00N 35°24' E 139°44'0 0.0
2017-Oct-12 16:30N 35°24' E 139°44'0 0.0
2017-Oct-12 16:00N 35°24' E 139°44'0 0.1
2017-Oct-12 15:30N 35°24' E 139°44'0 0.1
2017-Oct-12 15:00N 35°24' E 139°44'0 0.1
2017-Oct-12 14:30N 35°24' E 139°44'0 0.0
2017-Oct-12 14:00N 35°24' E 139°44'0 0.0
2017-Oct-12 13:30N 35°24' E 139°44'0 0.1
2017-Oct-12 13:00N 35°24' E 139°44'0 0.1
2017-Oct-12 12:30N 35°24' E 139°44'0 0.0
2017-Oct-12 11:54N 35°24' E 139°44'0 0.0
2017-Oct-12 11:30N 35°24' E 139°44'0 0.0
2017-Oct-12 11:00N 35°24' E 139°44'0 0.0
2017-Oct-12 10:30N 35°24' E 139°44'0 0.0
2017-Oct-12 09:57N 35°24' E 139°44'0 0.0
2017-Oct-12 09:30N 35°24' E 139°44'0 0.0
2017-Oct-12 09:00N 35°24' E 139°44'0 0.0
2017-Oct-12 08:30N 35°24' E 139°44'0 0.0
2017-Oct-12 08:00N 35°24' E 139°44'0 0.0
2017-Oct-12 07:30N 35°24' E 139°44'0 0.1
2017-Oct-12 07:00N 35°24' E 139°44'4 7.6
2017-Oct-12 06:31N 35°20' E 139°43'611.9
2017-Oct-12 06:00N 35°15' E 139°47'611.7
2017-Oct-12 05:31N 35°09' E 139°46'510.8
2017-Oct-12 05:01N 35°04' E 139°44'611.6
2017-Oct-12 04:30N 35°00' E 139°39'  

Dump ship's entire track history